Time;durP1;ratioP1;P1;durP2;ratioP2;P2;SDS_P1;SDS_P2;PMS_P1;PMS_P2;Temp;Humidity;BMP_temperature;BMP_pressure;BME280_temperature;BME280_humidity;BME280_pressure;Samples;Min_cycle;Max_cycle;Signal;HPM_P1;HPM_P2
2022/01/06 00:01:47;;;;;;;12.35;3.88;;;;;;;3.96;70.42;98682.41;2618389;47;20030;-65
2022/01/06 00:04:17;;;;;;;11.77;4.13;;;;;;;3.96;70.60;98688.47;2619225;54;20081;-66
2022/01/06 00:06:47;;;;;;;13.93;4.38;;;;;;;3.92;70.78;98691.53;2618505;54;20038;-66
2022/01/06 00:09:18;;;;;;;13.15;4.68;;;;;;;3.97;70.70;98689.28;2618572;54;20034;-66
2022/01/06 00:11:50;;;;;;;13.50;4.40;;;;;;;3.97;71.00;98690.09;2618292;47;20557;-65
2022/01/06 00:14:34;;;;;;;13.93;4.63;;;;;;;3.98;70.79;98694.34;2618369;54;20063;-65
2022/01/06 00:17:24;;;;;;;10.98;4.40;;;;;;;4.04;70.82;98705.16;2618729;54;20062;-65
2022/01/06 00:25:18;;;;;;;13.93;4.38;;;;;;;4.02;70.80;98694.03;2618636;47;20030;-64
2022/01/06 00:27:50;;;;;;;10.18;4.72;;;;;;;4.06;70.88;98692.75;2618448;54;20031;-65
2022/01/06 00:30:20;;;;;;;11.68;4.25;;;;;;;4.06;70.77;98685.72;2618836;54;20061;-65
2022/01/06 00:32:50;;;;;;;9.70;4.45;;;;;;;4.05;70.81;98691.94;2619061;39;20457;-65
2022/01/06 00:35:19;;;;;;;14.18;3.67;;;;;;;4.03;70.62;98700.91;2618207;54;20562;-66
2022/01/06 00:37:49;;;;;;;16.67;4.45;;;;;;;3.99;70.79;98695.16;2618435;54;20042;-66
2022/01/06 00:40:19;;;;;;;13.13;4.68;;;;;;;4.04;70.80;98705.16;2618172;54;20027;-65
2022/01/06 00:42:51;;;;;;;11.25;4.43;;;;;;;4.04;70.86;98699.94;2618082;54;20034;-64
2022/01/06 00:45:21;;;;;;;11.70;4.47;;;;;;;4.05;71.41;98704.22;2618752;54;20030;-64
2022/01/06 00:47:51;;;;;;;11.95;4.60;;;;;;;4.13;71.43;98701.66;2618107;54;20026;-64
2022/01/06 00:50:20;;;;;;;12.45;4.10;;;;;;;4.09;71.15;98705.53;2618720;54;20041;-64
2022/01/06 00:52:50;;;;;;;11.75;4.55;;;;;;;4.10;71.71;98702.75;2618189;54;20034;-64
2022/01/06 00:55:20;;;;;;;7.38;4.05;;;;;;;4.12;71.86;98705.22;2619020;39;20418;-65
2022/01/06 00:57:55;;;;;;;13.43;4.63;;;;;;;4.18;71.40;98700.19;2618633;54;20026;-64
2022/01/06 01:00:28;;;;;;;12.52;3.97;;;;;;;4.16;71.45;98699.56;2618469;54;20022;-64
2022/01/06 01:02:58;;;;;;;12.07;4.03;;;;;;;4.14;71.79;98696.25;2619981;39;20465;-65
2022/01/06 01:05:28;;;;;;;9.77;4.28;;;;;;;4.13;71.60;98706.88;2619040;54;20035;-65
2022/01/06 01:07:58;;;;;;;10.18;3.80;;;;;;;4.13;71.94;98714.72;2618285;47;20029;-66
2022/01/06 01:10:27;;;;;;;10.98;3.92;;;;;;;4.21;72.10;98712.16;2618996;54;20030;-64
2022/01/06 01:12:59;;;;;;;8.80;4.00;;;;;;;4.26;71.95;98717.75;2619001;39;20443;-64
2022/01/06 01:15:31;;;;;;;7.40;3.28;;;;;;;4.25;71.79;98716.13;2618652;54;20038;-64
2022/01/06 01:18:06;;;;;;;12.45;3.90;;;;;;;4.19;71.81;98714.91;2618685;54;20110;-64
2022/01/06 01:20:36;;;;;;;;;;;;;;;4.13;71.72;98722.56;2620751;39;20459;-65
2022/01/06 01:23:05;;;;;;;9.77;3.78;;;;;;;4.08;71.93;98716.97;2622070;54;19953;-65
2022/01/06 01:25:35;;;;;;;9.63;4.18;;;;;;;4.15;72.09;98716.19;2620952;54;20078;-65
2022/01/06 01:28:07;;;;;;;7.50;4.55;;;;;;;4.14;72.07;98716.38;2622995;54;20027;-65
2022/01/06 01:30:53;;;;;;;10.73;3.70;;;;;;;4.07;72.13;98724.00;2622779;54;20038;-65
2022/01/06 01:33:23;;;;;;;10.85;4.00;;;;;;;4.15;72.28;98728.47;2623139;54;20102;-65
2022/01/06 01:35:52;;;;;;;12.60;4.70;;;;;;;4.11;72.21;98725.31;2622379;47;20033;-65
2022/01/06 01:38:22;;;;;;;11.07;4.65;;;;;;;4.08;72.10;98730.03;2623054;54;20034;-64
2022/01/06 01:40:52;;;;;;;7.57;4.22;;;;;;;4.09;72.29;98729.09;2623654;54;20103;-65
2022/01/06 01:43:24;;;;;;;10.32;4.90;;;;;;;4.11;72.53;98738.41;2622513;54;20046;-65
2022/01/06 01:45:57;;;;;;;11.23;4.25;;;;;;;4.19;72.30;98746.31;2622253;54;20030;-64
2022/01/06 01:48:33;;;;;;;10.88;3.90;;;;;;;4.20;72.08;98749.75;2622174;47;20032;-65
2022/01/06 01:51:02;;;;;;;10.43;4.50;;;;;;;4.16;71.90;98743.19;2622520;47;20050;-64
2022/01/06 01:53:32;;;;;;;12.43;4.38;;;;;;;4.14;72.47;98751.19;2621618;54;20053;-64
2022/01/06 01:56:02;;;;;;;11.40;4.15;;;;;;;4.18;72.14;98754.31;2620217;54;20034;-65
2022/01/06 01:58:34;;;;;;;14.95;4.97;;;;;;;4.23;72.32;98749.44;2621365;54;20038;-64
2022/01/06 02:01:04;;;;;;;9.23;4.15;;;;;;;4.25;71.88;98757.16;2620616;54;20031;-64
2022/01/06 02:03:34;;;;;;;12.07;4.68;;;;;;;4.22;72.27;98759.09;2619481;47;20034;-64
2022/01/06 02:06:04;;;;;;;10.32;4.43;;;;;;;4.23;72.08;98757.31;2621751;54;20037;-64
2022/01/06 02:08:34;;;;;;;11.23;4.03;;;;;;;4.19;72.16;98767.25;2622385;54;20536;-64
2022/01/06 02:11:03;;;;;;;10.40;3.92;;;;;;;4.19;71.86;98764.63;2623430;54;20060;-65
2022/01/06 02:13:46;;;;;;;8.52;4.05;;;;;;;4.18;71.91;98770.84;2622290;47;20030;-64
2022/01/06 02:16:21;;;;;;;10.93;4.15;;;;;;;4.12;72.02;98762.78;2618675;54;20566;-64
2022/01/06 02:18:52;;;;;;;11.15;4.18;;;;;;;4.16;72.60;98769.34;2617944;54;20131;-66
2022/01/06 02:21:24;;;;;;;14.43;4.38;;;;;;;4.17;72.25;98769.22;2618668;54;20037;-63
2022/01/06 02:23:54;;;;;;;10.02;3.90;;;;;;;4.12;72.02;98774.09;2618377;54;20030;-65
2022/01/06 02:26:24;;;;;;;12.35;4.80;;;;;;;4.05;72.36;98780.06;2618400;54;20038;-67
2022/01/06 02:28:53;;;;;;;11.43;4.00;;;;;;;4.05;72.51;98780.88;2621990;47;20034;-67
2022/01/06 02:31:23;;;;;;;12.07;4.40;;;;;;;4.04;72.48;98786.25;2622595;54;20050;-65
2022/01/06 02:33:52;;;;;;;9.40;4.15;;;;;;;3.97;72.69;98791.28;2621082;47;20824;-65
2022/01/06 02:36:25;;;;;;;9.93;4.22;;;;;;;3.94;72.79;98794.19;2618368;54;20026;-65
2022/01/06 02:38:54;;;;;;;7.90;3.40;;;;;;;3.96;73.06;98792.25;2617988;54;20078;-64
2022/01/06 02:41:24;;;;;;;8.13;3.78;;;;;;;3.97;72.90;98793.91;2618445;54;20030;-66
2022/01/06 02:43:55;;;;;;;7.53;3.90;;;;;;;4.03;72.71;98788.06;2619511;39;20430;-65
2022/01/06 02:46:29;;;;;;;10.05;3.97;;;;;;;4.02;72.93;98799.50;2617455;54;20057;-65
2022/01/06 02:48:59;;;;;;;8.60;4.50;;;;;;;4.05;72.82;98796.59;2618372;54;20039;-64
2022/01/06 02:51:31;;;;;;;9.95;4.55;;;;;;;4.12;72.69;98799.41;2618583;39;20445;-64
2022/01/06 02:54:01;;;;;;;9.77;3.97;;;;;;;4.13;72.43;98796.66;2617780;47;20034;-65
2022/01/06 02:56:32;;;;;;;7.65;3.63;;;;;;;4.20;72.95;98805.53;2617757;54;20047;-67
2022/01/06 02:59:02;;;;;;;10.45;4.18;;;;;;;4.26;72.76;98806.72;2618523;54;20030;-65
2022/01/06 03:01:32;;;;;;;10.32;3.92;;;;;;;4.30;72.66;98808.06;2618475;54;20046;-64
2022/01/06 03:04:02;;;;;;;10.13;3.97;;;;;;;4.34;72.61;98816.44;2619390;31;20525;-64
2022/01/06 03:06:34;;;;;;;10.68;4.38;;;;;;;4.35;72.25;98818.06;2618634;54;20023;-63
2022/01/06 03:09:04;;;;;;;12.60;4.00;;;;;;;4.37;72.44;98824.00;2618507;54;20018;-63
2022/01/06 03:11:39;;;;;;;7.70;3.80;;;;;;;4.34;71.95;98824.28;2618099;47;20027;-64
2022/01/06 03:14:09;;;;;;;7.65;3.65;;;;;;;4.33;72.20;98822.66;2617708;54;20050;-65
2022/01/06 03:16:39;;;;;;;7.93;4.65;;;;;;;4.32;72.15;98813.13;2618348;54;20022;-65
2022/01/06 03:19:08;;;;;;;11.32;4.68;;;;;;;4.33;72.30;98812.19;2618302;47;20042;-65
2022/01/06 03:21:40;;;;;;;6.97;3.90;;;;;;;4.32;72.45;98816.56;2619439;54;20031;-65
2022/01/06 03:24:10;;;;;;;8.40;4.00;;;;;;;4.31;72.13;98817.53;2619506;39;20725;-64
2022/01/06 03:26:39;;;;;;;12.55;4.93;;;;;;;4.37;71.99;98835.28;2619900;31;20455;-65
2022/01/06 03:29:09;;;;;;;11.85;4.10;;;;;;;4.31;71.98;98827.19;2618503;54;20596;-65
2022/01/06 03:31:39;;;;;;;10.60;3.83;;;;;;;4.25;72.02;98825.19;2618837;54;20038;-65
2022/01/06 03:34:08;;;;;;;8.80;3.90;;;;;;;4.26;72.51;98829.47;2619070;54;20038;-66
2022/01/06 03:36:41;;;;;;;9.68;4.22;;;;;;;4.26;71.98;98830.28;2619493;54;20026;-64
2022/01/06 03:39:10;;;;;;;6.82;3.92;;;;;;;4.20;72.02;98830.88;2619217;39;20428;-64
2022/01/06 03:41:40;;;;;;;8.05;3.70;;;;;;;4.12;72.09;98823.78;2619279;54;20026;-64
2022/01/06 03:44:10;;;;;;;8.55;3.90;;;;;;;4.11;71.97;98829.97;2619778;39;20453;-64
2022/01/06 03:46:39;;;;;;;12.63;4.25;;;;;;;4.11;72.43;98834.38;2618967;54;20058;-64
2022/01/06 03:49:09;;;;;;;10.85;3.63;;;;;;;4.10;71.93;98833.56;2623472;54;20034;-66
2022/01/06 03:51:41;;;;;;;7.97;3.92;;;;;;;4.00;72.31;98842.47;2624631;47;20087;-65
2022/01/06 03:54:11;;;;;;;12.25;4.32;;;;;;;3.87;72.64;98846.28;2621465;54;20030;-66
2022/01/06 03:56:41;;;;;;;7.88;4.50;;;;;;;3.88;72.64;98840.09;2618381;54;20053;-65
2022/01/06 03:59:10;;;;;;;7.10;3.90;;;;;;;3.84;72.75;98853.63;2620851;54;20023;-65
2022/01/06 04:01:40;;;;;;;8.55;4.13;;;;;;;3.84;72.84;98846.59;2619407;54;20038;-67
2022/01/06 04:04:10;;;;;;;7.25;4.28;;;;;;;3.87;72.71;98853.28;2623695;31;20554;-65
2022/01/06 04:06:42;;;;;;;8.57;4.32;;;;;;;3.87;72.92;98845.44;2621438;39;20459;-66
2022/01/06 04:09:12;;;;;;;9.63;4.68;;;;;;;3.87;72.73;98848.88;2620818;54;20089;-65
2022/01/06 04:11:42;;;;;;;10.40;4.80;;;;;;;3.86;72.93;98862.94;2620404;54;20042;-68
2022/01/06 04:14:11;;;;;;;9.55;4.32;;;;;;;3.81;72.87;98861.75;2619867;54;20027;-64
2022/01/06 04:16:41;;;;;;;9.77;4.60;;;;;;;3.78;73.09;98860.25;2619109;54;20029;-65
2022/01/06 04:19:12;;;;;;;15.55;5.05;;;;;;;3.75;73.11;98851.88;2624853;39;20531;-63
2022/01/06 04:21:44;;;;;;;12.02;5.00;;;;;;;3.71;73.00;98862.63;2621764;54;20022;-67
2022/01/06 04:24:14;;;;;;;8.68;4.28;;;;;;;3.66;73.37;98869.25;2621965;54;20023;-65
2022/01/06 04:26:43;;;;;;;11.45;4.75;;;;;;;3.64;73.30;98869.41;2622032;54;20031;-65
2022/01/06 04:29:13;;;;;;;11.13;4.85;;;;;;;3.59;73.32;98874.28;2622081;54;20022;-64
2022/01/06 04:31:43;;;;;;;13.43;5.45;;;;;;;3.60;73.45;98880.31;2620528;54;20042;-65
2022/01/06 04:34:12;;;;;;;9.23;5.25;;;;;;;3.60;74.00;98885.53;2619176;54;20046;-67
2022/01/06 04:36:49;;;;;;;9.80;5.47;;;;;;;3.63;73.51;98885.22;2618672;54;20035;-67
2022/01/06 04:39:19;;;;;;;9.80;4.95;;;;;;;3.59;73.92;98887.34;2619044;54;20050;-66
2022/01/06 04:41:48;;;;;;;10.35;5.13;;;;;;;3.62;74.29;98889.63;2618228;47;20612;-67
2022/01/06 04:44:18;;;;;;;11.20;4.75;;;;;;;3.64;74.11;98886.91;2618519;47;20039;-66
2022/01/06 04:46:48;;;;;;;11.25;5.35;;;;;;;3.70;73.92;98892.34;2619346;31;20545;-66
2022/01/06 04:49:17;;;;;;;8.85;4.90;;;;;;;3.69;73.87;98897.72;2618734;54;20031;-66
2022/01/06 04:51:50;;;;;;;10.30;5.57;;;;;;;3.69;74.00;98902.97;2618083;47;20034;-66
2022/01/06 04:54:19;;;;;;;13.52;5.88;;;;;;;3.69;74.04;98916.03;2618784;54;20038;-66
2022/01/06 04:56:49;;;;;;;10.57;5.57;;;;;;;3.75;73.81;98904.97;2618474;54;20053;-66
2022/01/06 04:59:19;;;;;;;11.65;4.97;;;;;;;3.83;74.06;98914.72;2618905;54;20034;-65
2022/01/06 05:01:48;;;;;;;12.35;4.93;;;;;;;3.85;74.28;98918.00;2619287;54;20057;-65
2022/01/06 05:04:18;;;;;;;9.73;5.63;;;;;;;3.86;73.94;98914.41;2619804;54;20053;-65
2022/01/06 05:06:51;;;;;;;7.88;5.53;;;;;;;3.89;74.34;98920.19;2619887;54;20063;-65
2022/01/06 05:09:20;;;;;;;10.73;5.93;;;;;;;3.86;74.33;98925.69;2619218;54;20023;-66
2022/01/06 05:11:50;;;;;;;7.80;4.85;;;;;;;3.81;74.27;98925.31;2619495;54;20078;-65
2022/01/06 05:14:20;;;;;;;11.15;5.35;;;;;;;3.79;74.27;98937.72;2619491;54;20065;-65
2022/01/06 05:16:49;;;;;;;9.70;5.03;;;;;;;3.71;74.28;98938.47;2618662;54;20033;-65
2022/01/06 05:19:19;;;;;;;10.45;5.55;;;;;;;3.64;74.82;98939.19;2618840;54;20077;-65
2022/01/06 05:21:51;;;;;;;16.80;5.72;;;;;;;3.66;74.99;98939.84;2618821;54;20030;-65
2022/01/06 08:40:45;;;;;;;14.88;6.47;;;;;;;3.40;76.93;99143.53;2618142;39;20453;-66
2022/01/06 08:43:15;;;;;;;17.05;7.50;;;;;;;3.39;77.15;99140.09;2619100;54;20035;-66
2022/01/06 08:45:45;;;;;;;17.52;8.77;;;;;;;3.48;76.98;99146.28;2618504;54;20589;-66
2022/01/06 08:48:15;;;;;;;18.25;9.13;;;;;;;3.51;76.79;99146.00;2619230;54;20030;-65
2022/01/06 08:50:44;;;;;;;16.23;8.95;;;;;;;3.54;76.85;99147.50;2619015;54;20026;-66
2022/01/06 08:53:17;;;;;;;18.95;7.65;;;;;;;3.57;76.92;99152.47;2618320;46;20069;-65
2022/01/06 08:55:49;;;;;;;14.75;7.18;;;;;;;3.57;75.91;99153.28;2618148;54;20031;-66
2022/01/06 08:58:20;;;;;;;28.08;13.10;;;;;;;3.46;75.90;99143.78;2618616;39;20441;-65
2022/01/06 09:00:49;;;;;;;20.00;9.13;;;;;;;3.41;76.89;99156.47;2618555;54;20526;-65
2022/01/06 09:03:19;;;;;;;13.55;7.13;;;;;;;3.42;76.42;99168.56;2617864;47;20030;-65
2022/01/06 09:05:49;;;;;;;18.65;7.90;;;;;;;3.35;76.18;99175.31;2618220;54;20038;-66
2022/01/06 09:08:18;;;;;;;18.17;7.53;;;;;;;3.31;76.86;99180.97;2618388;54;20585;-66
2022/01/06 09:10:51;;;;;;;15.25;6.63;;;;;;;3.33;76.77;99182.44;2619210;39;20475;-65
2022/01/06 09:13:28;;;;;;;13.30;5.68;;;;;;;3.37;76.91;99176.00;2617849;54;20065;-66
2022/01/06 09:15:58;;;;;;;10.35;6.15;;;;;;;3.46;77.05;99175.16;2617852;39;20429;-66
2022/01/06 09:18:28;;;;;;;13.82;6.60;;;;;;;3.54;77.01;99181.50;2618765;54;20031;-65
2022/01/06 09:20:58;;;;;;;10.93;6.00;;;;;;;3.61;76.95;99188.66;2619772;54;20030;-65
2022/01/06 09:23:27;;;;;;;12.32;5.72;;;;;;;3.69;76.67;99180.94;2619510;54;20042;-65
2022/01/06 09:26:00;;;;;;;10.18;5.88;;;;;;;3.69;76.12;99182.72;2618371;47;20050;-66
2022/01/06 09:28:29;;;;;;;11.23;6.18;;;;;;;3.66;76.14;99189.03;2619254;54;20042;-66
2022/01/06 09:30:59;;;;;;;9.65;5.30;;;;;;;3.60;76.27;99197.47;2618493;54;20074;-66
2022/01/06 09:33:29;;;;;;;15.75;6.47;;;;;;;3.61;76.53;99193.06;2618175;54;20034;-66
2022/01/06 09:35:59;;;;;;;14.63;6.32;;;;;;;3.69;76.06;99195.81;2617314;54;20038;-66
2022/01/06 09:38:28;;;;;;;15.68;6.70;;;;;;;3.78;76.44;99197.56;2618282;54;20026;-66
2022/01/06 09:41:05;;;;;;;16.70;6.68;;;;;;;3.84;75.90;99202.25;2618049;54;20022;-66
2022/01/06 09:43:36;;;;;;;17.92;6.80;;;;;;;3.79;76.11;99206.25;2618182;54;20026;-65
2022/01/06 09:46:08;;;;;;;13.05;5.90;;;;;;;3.82;75.57;99216.44;2618029;54;20046;-66
2022/01/06 09:48:41;;;;;;;12.38;6.07;;;;;;;3.85;75.91;99219.59;2618207;54;20022;-66
2022/01/06 09:51:12;;;;;;;17.40;6.60;;;;;;;3.97;76.09;99228.13;2618241;54;20045;-65
2022/01/06 09:53:42;;;;;;;13.27;5.78;;;;;;;4.12;75.35;99221.50;2618550;54;20538;-65
2022/01/06 09:56:15;;;;;;;14.57;6.25;;;;;;;4.14;75.39;99218.72;2617434;54;20046;-66
2022/01/06 09:58:44;;;;;;;10.02;5.30;;;;;;;4.21;75.34;99225.03;2618334;54;20080;-66
2022/01/06 10:01:14;;;;;;;15.93;6.10;;;;;;;4.31;75.16;99219.78;2618854;39;20408;-66
2022/01/06 10:03:45;;;;;;;14.00;6.57;;;;;;;4.35;74.50;99208.88;2618157;54;20041;-65
2022/01/06 10:06:17;;;;;;;15.15;6.95;;;;;;;4.44;74.66;99215.03;2618163;54;20051;-65
2022/01/06 10:08:53;;;;;;;19.50;6.57;;;;;;;4.50;74.23;99205.81;2617578;54;20030;-65
2022/01/06 10:11:27;;;;;;;12.90;5.40;;;;;;;4.60;74.16;99203.97;2618257;54;20034;-65
2022/01/06 10:13:59;;;;;;;16.92;6.00;;;;;;;4.67;73.86;99200.63;2618747;39;20472;-65
2022/01/06 10:16:31;;;;;;;15.55;6.28;;;;;;;4.80;73.86;99202.91;2618015;54;20039;-67
2022/01/06 10:19:04;;;;;;;8.98;4.30;;;;;;;4.80;73.51;99202.91;2619357;54;20035;-66
2022/01/06 10:21:36;;;;;;;11.85;4.07;;;;;;;4.81;72.75;99209.78;2621934;54;20031;-67
2022/01/06 10:24:12;;;;;;;11.80;4.25;;;;;;;4.84;72.28;99209.50;2622427;39;20723;-66
2022/01/06 10:26:55;;;;;;;10.45;4.82;;;;;;;4.99;72.44;99207.22;2621346;54;20035;-65
2022/01/06 10:29:29;;;;;;;15.55;5.03;;;;;;;5.02;72.28;99209.56;2622072;54;20034;-65
2022/01/06 10:32:04;;;;;;;13.10;4.68;;;;;;;5.05;71.93;99206.63;2623143;39;20449;-65
2022/01/06 10:34:35;;;;;;;18.52;6.75;;;;;;;5.22;72.09;99211.06;2622694;39;20449;-65
2022/01/06 10:37:18;;;;;;;23.60;9.23;;;;;;;5.37;71.96;99216.59;2622032;54;20034;-65
2022/01/06 10:39:49;;;;;;;11.45;4.57;;;;;;;5.46;71.26;99214.88;2619064;54;20042;-67
2022/01/06 10:42:24;;;;;;;11.85;4.43;;;;;;;5.50;70.87;99213.63;2618280;54;20027;-66
2022/01/06 10:44:57;;;;;;;13.02;4.78;;;;;;;5.58;70.55;99203.19;2620322;54;20086;-66
2022/01/06 10:47:34;;;;;;;12.52;4.38;;;;;;;5.72;70.67;99209.72;2621254;54;20027;-65
2022/01/06 10:50:15;;;;;;;10.57;4.38;;;;;;;5.69;70.28;99207.41;2621224;54;20046;-67
2022/01/06 10:52:48;;;;;;;16.92;4.80;;;;;;;5.69;70.15;99202.97;2618147;54;20034;-66
2022/01/06 10:55:20;;;;;;;12.25;4.47;;;;;;;5.75;69.73;99209.41;2618045;54;20086;-66
2022/01/06 10:57:57;;;;;;;12.10;4.03;;;;;;;5.74;69.45;99204.31;2618691;31;20530;-66
2022/01/06 11:00:30;;;;;;;16.50;7.78;;;;;;;5.81;69.20;99214.06;2617266;47;20035;-66
2022/01/06 11:03:11;;;;;;;18.42;6.25;;;;;;;5.79;68.79;99204.69;2618042;54;20034;-67
2022/01/06 11:05:43;;;;;;;14.23;6.20;;;;;;;5.91;69.15;99203.47;2618107;54;20776;-65
2022/01/06 11:08:13;;;;;;;11.85;5.30;;;;;;;5.99;68.66;99205.34;2617906;54;20027;-66
2022/01/06 11:10:47;;;;;;;14.30;7.75;;;;;;;6.11;68.60;99206.75;2617921;54;20046;-66
2022/01/06 11:13:19;;;;;;;13.88;7.00;;;;;;;6.25;68.02;99203.56;2617397;54;20050;-65
2022/01/06 11:15:49;;;;;;;13.70;5.72;;;;;;;6.30;67.37;99205.72;2617839;54;20038;-65
2022/01/06 11:18:20;;;;;;;12.75;4.38;;;;;;;6.31;67.12;99207.38;2618044;54;20042;-66
2022/01/06 11:20:50;;;;;;;10.50;3.47;;;;;;;6.40;67.24;99204.63;2618612;31;20468;-67
2022/01/06 11:23:25;;;;;;;11.38;5.03;;;;;;;6.56;66.50;99206.50;2618021;54;20038;-67
2022/01/06 11:26:07;;;;;;;15.85;4.40;;;;;;;6.70;65.97;99200.69;2617847;54;20557;-67
2022/01/06 11:28:41;;;;;;;14.48;4.20;;;;;;;6.85;65.87;99202.69;2618138;54;20034;-68
2022/01/06 11:31:18;;;;;;;11.10;3.58;;;;;;;7.08;65.76;99200.31;2618848;54;20038;-67
2022/01/06 11:33:51;;;;;;;11.75;3.67;;;;;;;7.12;64.65;99194.56;2618425;54;20026;-67
2022/01/06 11:36:24;;;;;;;8.43;3.00;;;;;;;7.13;64.56;99190.94;2618088;54;20035;-67
2022/01/06 11:38:55;;;;;;;8.95;3.15;;;;;;;7.26;64.38;99194.91;2617888;54;20062;-66
2022/01/06 11:41:27;;;;;;;13.50;3.90;;;;;;;7.35;63.62;99184.25;2618493;54;20030;-68
2022/01/06 11:44:02;;;;;;;12.77;3.45;;;;;;;7.51;63.55;99185.25;2618030;54;20045;-67
2022/01/06 11:46:43;;;;;;;8.13;3.08;;;;;;;7.51;63.07;99180.84;2618307;54;20027;-67
2022/01/06 11:49:13;;;;;;;14.55;3.25;;;;;;;7.53;62.85;99173.59;2617533;54;20570;-68
2022/01/06 11:51:43;;;;;;;9.18;2.80;;;;;;;7.39;62.50;99185.59;2618496;54;20082;-67
2022/01/06 11:54:16;;;;;;;10.23;2.83;;;;;;;7.34;61.75;99179.16;2618436;54;20582;-68
2022/01/06 11:56:47;;;;;;;9.77;3.23;;;;;;;7.50;62.66;99173.91;2618920;54;20038;-67
2022/01/06 11:59:31;;;;;;;8.55;3.22;;;;;;;7.68;62.40;99177.22;2619240;54;20074;-68
2022/01/06 12:02:01;;;;;;;8.05;2.92;;;;;;;7.70;60.90;99175.22;2618439;47;20026;-68
2022/01/06 12:04:32;;;;;;;7.93;2.88;;;;;;;7.64;60.99;99173.25;2623720;54;20578;-67
2022/01/06 12:07:07;;;;;;;11.40;3.38;;;;;;;7.37;60.33;99174.38;2625305;54;20032;-67
2022/01/06 12:09:37;;;;;;;10.23;2.70;;;;;;;7.04;60.32;99176.16;2626129;54;20037;-67
2022/01/06 12:12:10;;;;;;;12.13;2.97;;;;;;;6.82;60.56;99179.38;2625417;54;20133;-67
2022/01/06 12:14:42;;;;;;;12.10;2.70;;;;;;;6.60;60.25;99184.19;2626060;54;20031;-66
2022/01/06 12:17:14;;;;;;;6.82;2.28;;;;;;;6.36;59.91;99195.41;2623638;54;20041;-67
2022/01/06 12:19:50;;;;;;;10.65;2.30;;;;;;;6.29;60.70;99186.53;2622928;54;20042;-67
2022/01/06 12:22:26;;;;;;;8.73;2.40;;;;;;;6.24;60.42;99187.97;2624624;54;20049;-67
2022/01/06 12:25:01;;;;;;;17.88;4.18;;;;;;;6.18;60.77;99194.66;2619400;39;20449;-67
2022/01/06 12:27:31;;;;;;;9.38;3.17;;;;;;;6.26;60.87;99186.84;2619165;54;20038;-65
2022/01/06 12:30:07;;;;;;;16.30;3.78;;;;;;;6.29;60.41;99186.53;2619901;39;20470;-66
2022/01/06 12:32:36;;;;;;;11.75;2.70;;;;;;;6.36;60.35;99192.78;2618839;47;20038;-67
2022/01/06 12:35:07;;;;;;;13.15;3.35;;;;;;;6.41;60.58;99194.97;2619064;54;20076;-68
2022/01/06 12:37:37;;;;;;;10.85;4.00;;;;;;;6.43;60.65;99185.94;2618652;54;20562;-67
2022/01/06 12:40:08;;;;;;;12.38;4.97;;;;;;;6.40;60.18;99188.03;2618902;54;20061;-66
2022/01/06 12:42:57;;;;;;;14.30;4.45;;;;;;;6.40;60.29;99181.00;2618558;54;20022;-67
2022/01/06 12:45:30;;;;;;;13.43;3.80;;;;;;;6.40;60.62;99185.41;2619517;39;20501;-67
2022/01/06 12:47:59;;;;;;;16.27;3.65;;;;;;;6.36;60.27;99181.47;2618704;54;20027;-66
2022/01/06 12:50:29;;;;;;;16.75;4.82;;;;;;;6.38;60.71;99182.13;2618594;54;20050;-65
2022/01/06 12:52:59;;;;;;;15.75;5.70;;;;;;;6.39;60.25;99181.97;2618634;54;20035;-66
2022/01/06 12:55:31;;;;;;;11.90;3.35;;;;;;;6.40;60.51;99180.16;2618514;54;20084;-66
2022/01/06 12:58:00;;;;;;;15.68;5.10;;;;;;;6.43;59.97;99183.31;2617981;54;20031;-65
2022/01/06 13:00:33;;;;;;;8.43;2.97;;;;;;;6.17;59.13;99190.41;2618893;54;20082;-66
2022/01/06 13:03:05;;;;;;;9.73;3.15;;;;;;;6.15;59.31;99187.91;2618540;54;20039;-66
2022/01/06 13:05:38;;;;;;;11.88;3.47;;;;;;;6.28;59.63;99179.59;2618749;54;20122;-66
2022/01/06 13:08:09;;;;;;;11.98;3.30;;;;;;;6.33;59.52;99182.63;2617941;54;20035;-65
2022/01/06 13:10:38;;;;;;;11.52;3.63;;;;;;;6.43;59.77;99185.13;2618703;54;20049;-65
2022/01/06 13:13:09;;;;;;;10.50;2.90;;;;;;;6.52;58.73;99186.78;2618551;54;20038;-65
2022/01/06 13:15:41;;;;;;;10.10;2.55;;;;;;;6.10;58.38;99176.25;2619158;54;20118;-65
2022/01/06 13:18:11;;;;;;;13.23;3.67;;;;;;;5.93;58.94;99186.63;2619626;54;20038;-66
2022/01/06 13:20:41;;;;;;;7.45;3.22;;;;;;;5.94;58.96;99183.03;2620399;54;20038;-66
2022/01/06 13:23:41;;;;;;;10.35;2.55;;;;;;;5.92;59.21;99179.75;2620327;54;20037;-66
2022/01/06 13:26:07;;;;;;;10.32;2.67;;;;;;;5.93;59.17;99184.00;2618216;54;20038;-67
2022/01/06 13:28:37;;;;;;;10.75;2.45;;;;;;;5.83;58.75;99183.22;2618107;47;20026;-66
2022/01/06 13:31:23;;;;;;;13.13;2.88;;;;;;;5.89;58.85;99182.63;2618227;47;20558;-66
2022/01/06 13:33:58;;;;;;;13.35;3.75;;;;;;;6.01;59.42;99171.91;2618416;39;20400;-65
2022/01/06 13:36:35;;;;;;;8.40;3.22;;;;;;;6.19;59.49;99183.19;2618211;54;20034;-67
2022/01/06 13:39:14;;;;;;;8.88;2.50;;;;;;;6.31;58.87;99176.69;2617814;47;20038;-67
2022/01/06 13:41:47;;;;;;;6.97;2.97;;;;;;;6.33;58.69;99181.78;2618383;54;20039;-67
2022/01/06 13:44:18;;;;;;;21.23;6.85;;;;;;;6.30;58.80;99179.47;2618045;54;20038;-67
2022/01/06 13:47:07;;;;;;;10.38;3.65;;;;;;;6.28;58.70;99187.47;2618724;54;20058;-67
2022/01/06 13:52:22;;;;;;;14.55;3.88;;;;;;;6.38;58.87;99190.03;2618542;54;20518;-66
2022/01/06 13:54:52;;;;;;;12.55;4.38;;;;;;;6.40;58.39;99186.25;2619380;54;20027;-66
2022/01/06 13:57:21;;;;;;;17.20;4.05;;;;;;;6.45;58.28;99186.63;2621772;54;20042;-67
2022/01/06 14:00:00;;;;;;;10.50;3.15;;;;;;;6.38;57.71;99187.41;2620487;47;20047;-65
2022/01/06 14:02:44;;;;;;;14.10;3.97;;;;;;;6.33;57.58;99187.88;2618650;54;20026;-65
2022/01/06 14:05:16;;;;;;;13.98;2.67;;;;;;;6.41;56.83;99187.91;2618667;39;20421;-66
2022/01/06 14:07:46;;;;;;;9.52;2.35;;;;;;;6.27;56.92;99192.91;2618091;54;20038;-66
2022/01/06 14:10:16;;;;;;;12.55;4.22;;;;;;;6.28;57.09;99190.09;2618221;47;20026;-66
2022/01/06 14:12:46;;;;;;;8.48;2.55;;;;;;;6.33;56.98;99181.78;2618356;54;20036;-66
2022/01/06 14:15:16;;;;;;;9.73;4.05;;;;;;;6.30;57.65;99188.16;2618279;54;20031;-66
2022/01/06 14:17:48;;;;;;;14.18;5.97;;;;;;;6.32;57.34;99188.81;2618249;54;20560;-66
2022/01/06 14:20:18;;;;;;;15.50;4.95;;;;;;;6.19;57.45;99196.28;2617592;54;20026;-67
2022/01/06 14:22:48;;;;;;;13.38;4.40;;;;;;;6.05;57.26;99189.00;2619772;31;20543;-66
2022/01/06 14:25:17;;;;;;;11.05;4.75;;;;;;;5.99;57.39;99195.69;2618084;54;20050;-67
2022/01/06 14:27:47;;;;;;;8.10;3.35;;;;;;;5.93;57.09;99197.13;2617347;47;20577;-66
2022/01/06 14:30:17;;;;;;;8.27;3.03;;;;;;;5.75;57.37;99193.66;2618206;54;20031;-67
2022/01/06 14:32:49;;;;;;;10.63;5.07;;;;;;;5.70;57.38;99194.13;2618166;54;20039;-66
2022/01/06 14:35:19;;;;;;;8.45;2.55;;;;;;;5.56;57.32;99197.28;2618239;54;20034;-66
2022/01/06 14:37:49;;;;;;;5.88;2.65;;;;;;;5.51;57.58;99206.56;2620500;31;20565;-65
2022/01/06 14:40:19;;;;;;;8.13;3.38;;;;;;;5.54;58.20;99203.66;2618171;54;20030;-66
2022/01/06 14:43:08;;;;;;;9.85;3.28;;;;;;;5.57;58.11;99201.56;2618039;54;20026;-67
2022/01/06 14:45:38;;;;;;;7.90;3.20;;;;;;;5.56;58.21;99206.97;2618471;39;20465;-67
2022/01/06 14:48:10;;;;;;;8.38;2.53;;;;;;;5.57;58.20;99211.22;2618217;54;20042;-67
2022/01/06 14:50:40;;;;;;;17.10;7.53;;;;;;;5.56;57.96;99201.72;2618868;54;20089;-67
2022/01/06 14:53:10;;;;;;;12.48;4.05;;;;;;;5.56;58.52;99206.97;2618874;54;20042;-65
2022/01/06 14:55:39;;;;;;;9.20;3.90;;;;;;;5.56;58.51;99199.91;2617942;54;20062;-65
2022/01/06 14:58:09;;;;;;;14.45;4.13;;;;;;;5.58;58.33;99199.75;2617649;54;20034;-66
2022/01/06 15:00:41;;;;;;;11.32;3.35;;;;;;;5.49;58.54;99208.53;2617504;54;20248;-67
2022/01/06 15:03:14;;;;;;;11.77;5.38;;;;;;;5.49;58.56;99213.78;2618649;54;20031;-66
2022/01/06 15:05:44;;;;;;;14.05;5.65;;;;;;;5.49;58.82;99211.16;2618791;54;20050;-67
2022/01/06 15:08:14;;;;;;;11.30;5.53;;;;;;;5.45;58.80;99215.88;2618168;47;20026;-67
2022/01/06 15:10:43;;;;;;;9.27;4.18;;;;;;;5.42;58.86;99216.97;2618695;54;20026;-67
2022/01/06 15:13:13;;;;;;;9.50;4.00;;;;;;;5.32;58.76;99215.41;2618812;47;20584;-68
2022/01/06 15:15:43;;;;;;;12.18;3.83;;;;;;;5.24;59.17;99212.72;2619148;54;20038;-69
2022/01/06 15:18:15;;;;;;;8.32;3.60;;;;;;;5.20;59.10;99218.25;2619473;54;20030;-67
2022/01/06 15:20:45;;;;;;;10.68;4.20;;;;;;;5.15;59.28;99219.69;2619739;54;20538;-66
2022/01/06 15:23:19;;;;;;;11.88;4.82;;;;;;;5.13;59.43;99222.41;2619634;54;20085;-68